ENGINEERING TRACK TESTING
Weather & Rail Temperature Monitoring
Weather station PRINCE
Prince Interlocking (Principio MD)
Measurement History
![]() ENGINEERING TRACK TESTING Weather station PRINCE Prince Interlocking (Principio MD) Measurement History ![]() |
Conditions for past 24 hours (since 09/01/2026 01:30 AM)
| Time | Track 2 W rail | Track 2 E rail | Track 3 W rail | Track 3 E rail | Outside Air Temperature |
Solar Radiation |
Max. Wind | Humidity | Air Pressure | Rain | |
| Speed | Dir | ||||||||||
| 09/02/2026 01:15 AM | 74 °F | 73 °F | 74 °F | 74 °F | 73.6 °F | 0 watt/m2 | 0 mph | --- | 98 % | 29.866 in Hg | 0.01 in |
| 09/02/2026 01:00 AM | 74 °F | 73 °F | 74 °F | 74 °F | 73.6 °F | 0 watt/m2 | 0 mph | --- | 98 % | 29.878 in Hg | 0.02 in |
| 09/02/2026 12:45 AM | 74 °F | 73 °F | 74 °F | 74 °F | 73.7 °F | 0 watt/m2 | 0 mph | --- | 99 % | 29.886 in Hg | 0.02 in |
| 09/02/2026 12:30 AM | 74 °F | 73 °F | 74 °F | 74 °F | 73.6 °F | 0 watt/m2 | 0 mph | --- | 98 % | 29.874 in Hg | 0.02 in |
| 09/02/2026 12:15 AM | 74 °F | 73 °F | 74 °F | 74 °F | 73.6 °F | 0 watt/m2 | 0 mph | --- | 98 % | 29.881 in Hg | 0.01 in |
| 09/02/2026 12:00 AM | 74 °F | 74 °F | 74 °F | 74 °F | 73.9 °F | 0 watt/m2 | 4 mph | ENE | 98 % | 29.873 in Hg | 0.01 in |
| 09/01/2026 11:45 PM | 74 °F | 74 °F | 74 °F | 74 °F | 74 °F | 0 watt/m2 | 0 mph | --- | 97 % | 29.869 in Hg | 0 in |
| 09/01/2026 11:30 PM | 75 °F | 74 °F | 74 °F | 74 °F | 74.2 °F | 0 watt/m2 | 3 mph | W | 97 % | 29.843 in Hg | 0 in |
| 09/01/2026 11:15 PM | 75 °F | 74 °F | 74 °F | 75 °F | 74.2 °F | 0 watt/m2 | 4 mph | W | 96 % | 29.824 in Hg | 0.01 in |
| 09/01/2026 11:00 PM | 75 °F | 74 °F | 75 °F | 75 °F | 74.4 °F | 0 watt/m2 | 7 mph | W | 96 % | 29.811 in Hg | 0 in |
| 09/01/2026 10:45 PM | 76 °F | 75 °F | 75 °F | 76 °F | 74.8 °F | 0 watt/m2 | 10 mph | SW | 95 % | 29.813 in Hg | 0.04 in |
| 09/01/2026 10:30 PM | 78 °F | 77 °F | 77 °F | 78 °F | 76.3 °F | 0 watt/m2 | 10 mph | ENE | 94 % | 29.823 in Hg | 0.16 in |
| 09/01/2026 10:15 PM | 80 °F | 78 °F | 79 °F | 79 °F | 77 °F | 0 watt/m2 | 0 mph | --- | 93 % | 29.82 in Hg | 0.01 in |
| 09/01/2026 10:00 PM | 82 °F | 81 °F | 81 °F | 82 °F | 77.1 °F | 0 watt/m2 | 0 mph | --- | 92 % | 29.809 in Hg | 0.01 in |
| 09/01/2026 09:45 PM | 83 °F | 82 °F | 82 °F | 83 °F | 77.3 °F | 0 watt/m2 | 4 mph | ENE | 91 % | 29.812 in Hg | 0 in |
| 09/01/2026 09:30 PM | 84 °F | 83 °F | 83 °F | 84 °F | 77.8 °F | 0 watt/m2 | 10 mph | ENE | 89 % | 29.812 in Hg | 0 in |
| 09/01/2026 09:15 PM | 85 °F | 84 °F | 85 °F | 85 °F | 79.1 °F | 0 watt/m2 | 17 mph | ENE | 87 % | 29.805 in Hg | 0 in |
| 09/01/2026 09:00 PM | 87 °F | 86 °F | 86 °F | 87 °F | 81.5 °F | 0 watt/m2 | 17 mph | ENE | 85 % | 29.782 in Hg | 0 in |
| 09/01/2026 08:45 PM | 88 °F | 87 °F | 88 °F | 88 °F | 84.3 °F | 0 watt/m2 | 4 mph | NE | 90 % | 29.753 in Hg | 0 in |
| 09/01/2026 08:30 PM | 89 °F | 88 °F | 88 °F | 89 °F | 84.8 °F | 0 watt/m2 | 5 mph | WNW | 89 % | 29.749 in Hg | 0 in |
| 09/01/2026 08:15 PM | 90 °F | 89 °F | 89 °F | 90 °F | 85.5 °F | 0 watt/m2 | 2 mph | NNE | 88 % | 29.751 in Hg | 0 in |
| 09/01/2026 08:00 PM | 91 °F | 90 °F | 90 °F | 91 °F | 86.3 °F | 0 watt/m2 | 5 mph | NNE | 86 % | 29.737 in Hg | 0 in |
| 09/01/2026 07:45 PM | 93 °F | 91 °F | 92 °F | 92 °F | 87.1 °F | 2 watt/m2 | 0 mph | --- | 85 % | 29.716 in Hg | 0 in |
| 09/01/2026 07:30 PM | 94 °F | 93 °F | 93 °F | 94 °F | 87.8 °F | 21 watt/m2 | 4 mph | NW | 83 % | 29.736 in Hg | 0 in |
| 09/01/2026 07:15 PM | 96 °F | 94 °F | 95 °F | 95 °F | 88.4 °F | 25 watt/m2 | 2 mph | SW | 81 % | 29.735 in Hg | 0 in |
| 09/01/2026 07:00 PM | 97 °F | 96 °F | 96 °F | 97 °F | 89 °F | 33 watt/m2 | 0 mph | --- | 81 % | 29.743 in Hg | 0 in |
| 09/01/2026 06:45 PM | 99 °F | 98 °F | 98 °F | 98 °F | 89.5 °F | 28 watt/m2 | 3 mph | SSW | 79 % | 29.736 in Hg | 0 in |
| 09/01/2026 06:30 PM | 101 °F | 99 °F | 99 °F | 100 °F | 90.2 °F | 64 watt/m2 | 4 mph | SSW | 78 % | 29.739 in Hg | 0 in |
| 09/01/2026 06:15 PM | 103 °F | 101 °F | 101 °F | 102 °F | 90.9 °F | 124 watt/m2 | 4 mph | SW | 77 % | 29.734 in Hg | 0 in |
| 09/01/2026 06:00 PM | 104 °F | 104 °F | 103 °F | 104 °F | 91.6 °F | 114 watt/m2 | 3 mph | SW | 77 % | 29.732 in Hg | 0 in |
| 09/01/2026 05:45 PM | 106 °F | 107 °F | 105 °F | 105 °F | 92 °F | 217 watt/m2 | 0 mph | --- | 78 % | 29.735 in Hg | 0 in |
| 09/01/2026 05:30 PM | 108 °F | 110 °F | 107 °F | 107 °F | 91.6 °F | 289 watt/m2 | 3 mph | SSW | 78 % | 29.735 in Hg | 0 in |
| 09/01/2026 05:15 PM | 109 °F | 111 °F | 107 °F | 107 °F | 91.1 °F | 335 watt/m2 | 5 mph | SSW | 79 % | 29.735 in Hg | 0 in |
| 09/01/2026 05:00 PM | 109 °F | 110 °F | 107 °F | 108 °F | 91 °F | 233 watt/m2 | 2 mph | SSW | 79 % | 29.739 in Hg | 0 in |
| 09/01/2026 04:45 PM | 110 °F | 109 °F | 109 °F | 109 °F | 91.8 °F | 142 watt/m2 | 4 mph | SSW | 79 % | 29.737 in Hg | 0 in |
| 09/01/2026 04:30 PM | 112 °F | 111 °F | 111 °F | 112 °F | 92.4 °F | 194 watt/m2 | 2 mph | SSW | 78 % | 29.74 in Hg | 0 in |
| 09/01/2026 04:15 PM | 114 °F | 114 °F | 114 °F | 113 °F | 92.8 °F | 484 watt/m2 | 4 mph | SSW | 78 % | 29.738 in Hg | 0 in |
| 09/01/2026 04:00 PM | 114 °F | 113 °F | 114 °F | 114 °F | 92.9 °F | 490 watt/m2 | 4 mph | SSW | 78 % | 29.739 in Hg | 0 in |
| 09/01/2026 03:45 PM | 115 °F | 114 °F | 114 °F | 115 °F | 93.3 °F | 511 watt/m2 | 9 mph | SW | 76 % | 29.744 in Hg | 0 in |
| 09/01/2026 03:30 PM | 116 °F | 115 °F | 115 °F | 116 °F | 93.6 °F | 640 watt/m2 | 2 mph | SW | 78 % | 29.745 in Hg | 0 in |
| 09/01/2026 03:15 PM | 116 °F | 114 °F | 115 °F | 116 °F | 93.2 °F | 639 watt/m2 | 1 mph | SW | 78 % | 29.751 in Hg | 0 in |
| 09/01/2026 03:00 PM | 116 °F | 114 °F | 115 °F | 116 °F | 92.7 °F | 670 watt/m2 | 3 mph | SW | 79 % | 29.755 in Hg | 0 in |
| 09/01/2026 02:45 PM | 115 °F | 113 °F | 114 °F | 115 °F | 92 °F | 714 watt/m2 | 1 mph | SW | 79 % | 29.765 in Hg | 0 in |
| 09/01/2026 02:30 PM | 114 °F | 112 °F | 113 °F | 114 °F | 91.1 °F | 704 watt/m2 | 1 mph | SW | 80 % | 29.765 in Hg | 0 in |
| 09/01/2026 02:15 PM | 113 °F | 110 °F | 112 °F | 112 °F | 90.2 °F | 717 watt/m2 | 6 mph | SW | 83 % | 29.771 in Hg | 0 in |
| 09/01/2026 02:00 PM | 110 °F | 109 °F | 110 °F | 110 °F | 89.7 °F | 741 watt/m2 | 7 mph | WSW | 84 % | 29.779 in Hg | 0 in |
| 09/01/2026 01:45 PM | 108 °F | 106 °F | 107 °F | 108 °F | 88.7 °F | 703 watt/m2 | 0 mph | --- | 87 % | 29.787 in Hg | 0 in |
| 09/01/2026 01:30 PM | 105 °F | 104 °F | 105 °F | 105 °F | 87.2 °F | 597 watt/m2 | 0 mph | --- | 90 % | 29.795 in Hg | 0 in |
| 09/01/2026 01:15 PM | 103 °F | 102 °F | 102 °F | 102 °F | 86.4 °F | 422 watt/m2 | 0 mph | --- | 91 % | 29.8 in Hg | 0 in |
| 09/01/2026 01:00 PM | 102 °F | 101 °F | 101 °F | 101 °F | 85.7 °F | 347 watt/m2 | 2 mph | WSW | 92 % | 29.801 in Hg | 0 in |
| 09/01/2026 12:45 PM | 101 °F | 100 °F | 100 °F | 101 °F | 85.5 °F | 254 watt/m2 | 0 mph | --- | 91 % | 29.813 in Hg | 0 in |
| 09/01/2026 12:30 PM | 102 °F | 101 °F | 101 °F | 102 °F | 85.8 °F | 165 watt/m2 | 2 mph | WSW | 91 % | 29.816 in Hg | 0 in |
| 09/01/2026 12:15 PM | 105 °F | 103 °F | 104 °F | 104 °F | 86.1 °F | 123 watt/m2 | 0 mph | --- | 90 % | 29.82 in Hg | 0 in |
| 09/01/2026 12:00 PM | 107 °F | 105 °F | 106 °F | 107 °F | 86.2 °F | 213 watt/m2 | 2 mph | WSW | 89 % | 29.824 in Hg | 0 in |
| 09/01/2026 11:45 AM | 109 °F | 107 °F | 108 °F | 109 °F | 86.1 °F | 378 watt/m2 | 2 mph | WSW | 89 % | 29.827 in Hg | 0 in |
| 09/01/2026 11:30 AM | 108 °F | 106 °F | 107 °F | 108 °F | 85 °F | 720 watt/m2 | 2 mph | WSW | 91 % | 29.827 in Hg | 0 in |
| 09/01/2026 11:15 AM | 104 °F | 102 °F | 104 °F | 104 °F | 83.9 °F | 630 watt/m2 | 5 mph | W | 92 % | 29.838 in Hg | 0 in |
| 09/01/2026 11:00 AM | 101 °F | 99 °F | 100 °F | 100 °F | 83.6 °F | 578 watt/m2 | 4 mph | WNW | 93 % | 29.841 in Hg | 0 in |
| 09/01/2026 10:45 AM | 97 °F | 96 °F | 97 °F | 97 °F | 82.3 °F | 533 watt/m2 | 0 mph | --- | 96 % | 29.837 in Hg | 0 in |
| 09/01/2026 10:30 AM | 93 °F | 91 °F | 92 °F | 92 °F | 80.7 °F | 566 watt/m2 | 0 mph | --- | 97 % | 29.844 in Hg | 0 in |
| 09/01/2026 10:15 AM | 89 °F | 88 °F | 89 °F | 89 °F | 79.8 °F | 198 watt/m2 | 5 mph | W | 98 % | 29.844 in Hg | 0 in |
| 09/01/2026 10:00 AM | 88 °F | 87 °F | 88 °F | 88 °F | 79.5 °F | 214 watt/m2 | 0 mph | --- | 98 % | 29.843 in Hg | 0 in |
| 09/01/2026 09:45 AM | 87 °F | 87 °F | 87 °F | 87 °F | 79.4 °F | 144 watt/m2 | 0 mph | --- | 98 % | 29.844 in Hg | 0 in |
| 09/01/2026 09:30 AM | 87 °F | 86 °F | 87 °F | 87 °F | 79 °F | 182 watt/m2 | 0 mph | --- | 99 % | 29.843 in Hg | 0 in |
| 09/01/2026 09:15 AM | 86 °F | 86 °F | 86 °F | 86 °F | 78.7 °F | 158 watt/m2 | 0 mph | --- | 100 % | 29.846 in Hg | 0 in |
| 09/01/2026 09:00 AM | 86 °F | 85 °F | 86 °F | 85 °F | 78.1 °F | 194 watt/m2 | 3 mph | WNW | 100 % | 29.855 in Hg | 0 in |
| 09/01/2026 08:45 AM | 83 °F | 83 °F | 83 °F | 83 °F | 77.3 °F | 331 watt/m2 | 4 mph | WNW | 100 % | 29.858 in Hg | 0 in |
| 09/01/2026 08:30 AM | 80 °F | 79 °F | 79 °F | 79 °F | 76.5 °F | 223 watt/m2 | 1 mph | WNW | 100 % | 29.861 in Hg | 0 in |
| 09/01/2026 08:15 AM | 77 °F | 76 °F | 76 °F | 76 °F | 75.5 °F | 155 watt/m2 | 0 mph | --- | 100 % | 29.862 in Hg | 0 in |
| 09/01/2026 08:00 AM | 75 °F | 75 °F | 75 °F | 75 °F | 74.8 °F | 101 watt/m2 | 0 mph | --- | 100 % | 29.86 in Hg | 0 in |
| 09/01/2026 07:45 AM | 74 °F | 74 °F | 74 °F | 73 °F | 73.9 °F | 79 watt/m2 | 4 mph | WNW | 100 % | 29.859 in Hg | 0 in |
| 09/01/2026 07:30 AM | 73 °F | 72 °F | 73 °F | 73 °F | 73.4 °F | 65 watt/m2 | 0 mph | --- | 100 % | 29.859 in Hg | 0 in |
| 09/01/2026 07:15 AM | 72 °F | 71 °F | 72 °F | 72 °F | 72.9 °F | 29 watt/m2 | 0 mph | --- | 100 % | 29.858 in Hg | 0 in |
| 09/01/2026 07:00 AM | 71 °F | 71 °F | 71 °F | 72 °F | 72.2 °F | 12 watt/m2 | 0 mph | --- | 99 % | 29.862 in Hg | 0 in |
| 09/01/2026 06:45 AM | 71 °F | 71 °F | 72 °F | 72 °F | 72.4 °F | 1 watt/m2 | 0 mph | --- | 99 % | 29.858 in Hg | 0 in |
| 09/01/2026 06:30 AM | 72 °F | 71 °F | 72 °F | 72 °F | 72.5 °F | 0 watt/m2 | 0 mph | --- | 99 % | 29.859 in Hg | 0 in |
| 09/01/2026 06:15 AM | 72 °F | 71 °F | 72 °F | 72 °F | 72.6 °F | 0 watt/m2 | 7 mph | WNW | 100 % | 29.857 in Hg | 0.01 in |
| 09/01/2026 06:00 AM | 72 °F | 71 °F | 72 °F | 72 °F | 72.5 °F | 0 watt/m2 | 0 mph | --- | 99 % | 29.847 in Hg | 0 in |
| 09/01/2026 05:45 AM | 72 °F | 71 °F | 72 °F | 72 °F | 72.5 °F | 0 watt/m2 | 3 mph | NNW | 99 % | 29.857 in Hg | 0 in |
| 09/01/2026 05:30 AM | 72 °F | 71 °F | 72 °F | 72 °F | 72.5 °F | 0 watt/m2 | 0 mph | --- | 99 % | 29.857 in Hg | 0 in |
| 09/01/2026 05:15 AM | 72 °F | 71 °F | 72 °F | 72 °F | 72.6 °F | 0 watt/m2 | 0 mph | --- | 99 % | 29.859 in Hg | 0 in |
| 09/01/2026 05:00 AM | 72 °F | 71 °F | 72 °F | 72 °F | 72.6 °F | 0 watt/m2 | 0 mph | --- | 99 % | 29.861 in Hg | 0 in |
| 09/01/2026 04:45 AM | 72 °F | 71 °F | 72 °F | 72 °F | 72.3 °F | 0 watt/m2 | 0 mph | --- | 99 % | 29.861 in Hg | 0 in |
| 09/01/2026 04:30 AM | 72 °F | 71 °F | 72 °F | 72 °F | 72.2 °F | 0 watt/m2 | 0 mph | --- | 99 % | 29.86 in Hg | 0 in |
| 09/01/2026 04:15 AM | 72 °F | 71 °F | 72 °F | 72 °F | 72.1 °F | 0 watt/m2 | 0 mph | --- | 98 % | 29.859 in Hg | 0 in |
| 09/01/2026 04:00 AM | 72 °F | 71 °F | 72 °F | 72 °F | 72.3 °F | 0 watt/m2 | 0 mph | --- | 98 % | 29.86 in Hg | 0 in |
| 09/01/2026 03:45 AM | 72 °F | 71 °F | 72 °F | 72 °F | 72.5 °F | 0 watt/m2 | 0 mph | --- | 98 % | 29.86 in Hg | 0 in |
| 09/01/2026 03:30 AM | 72 °F | 71 °F | 72 °F | 72 °F | 72.7 °F | 0 watt/m2 | 0 mph | --- | 98 % | 29.86 in Hg | 0 in |
| 09/01/2026 03:15 AM | 72 °F | 72 °F | 72 °F | 73 °F | 72.8 °F | 0 watt/m2 | 0 mph | --- | 98 % | 29.862 in Hg | 0 in |
| 09/01/2026 03:00 AM | 72 °F | 72 °F | 73 °F | 73 °F | 72.9 °F | 0 watt/m2 | 0 mph | --- | 98 % | 29.868 in Hg | 0 in |
| 09/01/2026 02:45 AM | 72 °F | 72 °F | 73 °F | 73 °F | 73 °F | 0 watt/m2 | 0 mph | --- | 98 % | 29.874 in Hg | 0 in |
| 09/01/2026 02:30 AM | 72 °F | 72 °F | 73 °F | 73 °F | 73.1 °F | 0 watt/m2 | 0 mph | --- | 97 % | 29.875 in Hg | 0 in |
| 09/01/2026 02:15 AM | 73 °F | 72 °F | 73 °F | 73 °F | 73.2 °F | 0 watt/m2 | 0 mph | --- | 97 % | 29.877 in Hg | 0 in |
| 09/01/2026 02:00 AM | 73 °F | 72 °F | 73 °F | 74 °F | 73.5 °F | 0 watt/m2 | 0 mph | --- | 97 % | 29.882 in Hg | 0 in |
| 09/01/2026 01:45 AM | 73 °F | 72 °F | 74 °F | 74 °F | 73.6 °F | 0 watt/m2 | 0 mph | --- | 97 % | 29.886 in Hg | 0 in |